createdAt,value
2023-10-14T00:02:09.990Z,1.88
2023-10-14T00:04:38.048Z,1.85
2023-10-14T00:07:10.169Z,2.15
2023-10-14T00:09:45.245Z,2.00
2023-10-14T00:12:16.282Z,1.98
2023-10-14T00:14:48.027Z,1.63
2023-10-14T00:17:22.400Z,1.60
2023-10-14T00:19:57.637Z,1.85
2023-10-14T00:22:28.022Z,1.63
2023-10-14T00:24:56.157Z,1.88
2023-10-14T00:27:25.263Z,1.90
2023-10-14T00:30:07.208Z,1.75
2023-10-14T00:32:34.931Z,1.85
2023-10-14T00:35:05.516Z,1.90
2023-10-14T00:37:34.480Z,1.58
2023-10-14T00:40:07.751Z,1.90
2023-10-14T00:42:35.412Z,1.95
2023-10-14T00:45:03.100Z,1.65
2023-10-14T00:47:32.132Z,1.57
2023-10-14T00:50:03.788Z,1.73
2023-10-14T00:52:31.772Z,1.95
2023-10-14T00:55:00.316Z,1.77
2023-10-14T00:57:39.653Z,1.88
2023-10-14T01:00:12.244Z,1.80
2023-10-14T01:02:40.114Z,1.67
2023-10-14T01:05:09.489Z,1.80
2023-10-14T01:07:40.477Z,1.85
2023-10-14T01:10:12.668Z,1.60
2023-10-14T01:12:40.556Z,1.83
2023-10-14T01:15:20.569Z,1.67
2023-10-14T01:17:49.534Z,2.03
2023-10-14T01:20:19.776Z,1.90
2023-10-14T01:22:53.030Z,2.00
2023-10-14T01:25:20.903Z,2.00
2023-10-14T01:27:48.604Z,1.73
2023-10-14T01:30:21.734Z,2.03
2023-10-14T01:32:49.463Z,1.83
2023-10-14T01:35:32.697Z,1.67
2023-10-14T01:38:01.858Z,1.80
2023-10-14T01:40:38.622Z,2.05
2023-10-14T01:43:10.392Z,1.77
2023-10-14T01:46:01.802Z,1.58
2023-10-14T01:48:32.819Z,1.48
2023-10-14T01:51:01.334Z,2.07
2023-10-14T01:53:33.914Z,1.80
2023-10-14T01:56:03.119Z,2.13
2023-10-14T01:58:32.482Z,1.98
2023-10-14T02:01:24.379Z,1.80
2023-10-14T02:03:53.624Z,2.10
2023-10-14T02:06:28.388Z,1.73
2023-10-14T02:08:59.649Z,2.22
2023-10-14T02:11:34.930Z,1.85
2023-10-14T02:14:09.807Z,2.05
2023-10-14T02:16:46.336Z,2.40
2023-10-14T02:19:38.437Z,1.83
2023-10-14T02:22:11.371Z,3.13
2023-10-14T02:24:39.534Z,1.98
2023-10-14T02:27:16.049Z,1.92
2023-10-14T02:29:48.491Z,2.30
2023-10-14T02:32:16.734Z,2.03
2023-10-14T02:34:46.264Z,1.98
2023-10-14T02:37:17.195Z,2.15
2023-10-14T02:39:45.374Z,1.95
2023-10-14T02:42:16.814Z,1.93
2023-10-14T02:44:54.268Z,2.38
2023-10-14T02:47:22.043Z,2.15
2023-10-14T02:50:07.164Z,2.35
2023-10-14T02:52:40.307Z,1.88
2023-10-14T02:55:22.630Z,1.50
2023-10-14T02:57:50.620Z,2.08
2023-10-14T03:00:32.230Z,1.88
2023-10-14T03:03:16.558Z,2.25
2023-10-14T03:05:53.739Z,2.03
2023-10-14T03:08:22.363Z,2.10
2023-10-14T03:11:01.365Z,2.30
2023-10-14T03:13:31.189Z,2.10
2023-10-14T03:15:59.779Z,2.05
2023-10-14T03:18:39.110Z,1.88
2023-10-14T03:21:26.990Z,2.20
2023-10-14T03:23:58.279Z,2.08
2023-10-14T03:26:33.742Z,2.25
2023-10-14T03:29:06.455Z,1.92
2023-10-14T03:31:37.291Z,1.85
2023-10-14T03:34:10.214Z,2.30
2023-10-14T03:36:37.877Z,2.10
2023-10-14T03:39:22.576Z,2.20
2023-10-14T03:41:54.195Z,2.08
2023-10-14T03:44:25.195Z,2.33
2023-10-14T03:47:01.368Z,2.40
2023-10-14T03:49:29.757Z,2.08
2023-10-14T03:52:00.319Z,2.65
2023-10-14T03:54:30.392Z,2.42
2023-10-14T03:57:05.318Z,2.55
2023-10-14T03:59:35.034Z,2.43
2023-10-14T04:02:06.818Z,2.63
2023-10-14T04:04:36.254Z,2.70
2023-10-14T04:07:04.266Z,2.40
2023-10-14T04:09:51.847Z,2.65
2023-10-14T04:12:39.535Z,2.60
2023-10-14T04:15:14.084Z,2.42
2023-10-14T04:17:48.105Z,2.65
2023-10-14T04:20:16.117Z,2.75
2023-10-14T04:22:43.893Z,2.90
2023-10-14T04:25:22.843Z,2.60
2023-10-14T04:27:52.928Z,2.38
2023-10-14T04:30:31.169Z,2.45
2023-10-14T04:33:03.136Z,2.15
2023-10-14T04:35:35.124Z,2.65
2023-10-14T04:38:26.276Z,2.30
2023-10-14T04:40:59.691Z,2.25
2023-10-14T04:43:27.357Z,2.25
2023-10-14T04:46:16.995Z,2.03
2023-10-14T04:49:01.352Z,2.20
2023-10-14T04:51:58.304Z,2.37
2023-10-14T04:54:27.132Z,2.38
2023-10-14T04:56:59.343Z,2.15
2023-10-14T04:59:29.459Z,2.47
2023-10-14T05:01:57.498Z,2.72
2023-10-14T05:04:32.241Z,2.17
2023-10-14T05:07:05.661Z,2.30
2023-10-14T05:09:41.126Z,2.55
2023-10-14T05:12:09.833Z,2.40
2023-10-14T05:14:38.740Z,2.25
2023-10-14T05:17:12.732Z,2.23
2023-10-14T05:19:43.827Z,2.63
2023-10-14T05:22:15.150Z,2.45
2023-10-14T05:24:50.120Z,2.50
2023-10-14T05:27:37.154Z,2.30
2023-10-14T05:30:09.008Z,2.53
2023-10-14T05:32:37.772Z,2.25
2023-10-14T05:35:11.553Z,2.05
2023-10-14T05:37:43.054Z,2.17
2023-10-14T05:40:17.542Z,2.47
2023-10-14T05:42:47.390Z,2.37
2023-10-14T05:45:15.728Z,2.25
2023-10-14T05:47:44.264Z,2.28
2023-10-14T05:50:18.111Z,2.25
2023-10-14T05:52:51.114Z,2.38
2023-10-14T05:55:21.677Z,2.13
2023-10-14T05:57:51.328Z,2.33
2023-10-14T06:00:22.587Z,2.38
2023-10-14T06:02:53.463Z,2.15
2023-10-14T06:05:27.856Z,2.30
2023-10-14T06:08:01.831Z,2.70
2023-10-14T06:10:37.899Z,2.65
2023-10-14T06:13:10.337Z,2.42
2023-10-14T06:15:42.946Z,2.28
2023-10-14T06:18:10.784Z,2.60
2023-10-14T06:20:38.646Z,3.57
2023-10-14T06:23:09.429Z,2.55
2023-10-14T06:25:39.800Z,2.33
2023-10-14T06:28:09.180Z,1.95
2023-10-14T06:30:36.976Z,2.72
2023-10-14T06:33:08.314Z,2.53
2023-10-14T06:35:38.829Z,2.28
2023-10-14T06:38:06.605Z,2.63
2023-10-14T06:40:37.107Z,2.63
2023-10-14T06:43:10.677Z,2.95
2023-10-14T06:45:39.323Z,2.50
2023-10-14T06:48:13.900Z,2.78
2023-10-14T06:50:44.234Z,2.85
2023-10-14T06:53:12.706Z,2.83
2023-10-14T06:55:43.266Z,2.53
2023-10-14T06:58:20.484Z,2.17
2023-10-14T07:00:49.994Z,2.55
2023-10-14T07:03:18.487Z,2.58
2023-10-14T07:05:49.875Z,2.72
2023-10-14T07:08:21.035Z,2.95
2023-10-14T07:10:52.065Z,2.60
2023-10-14T07:13:22.632Z,2.85
2023-10-14T07:15:52.099Z,3.28
2023-10-14T07:18:24.733Z,2.75
2023-10-14T07:21:14.591Z,2.78
2023-10-14T07:23:43.160Z,2.80
2023-10-14T07:26:13.563Z,2.80
2023-10-14T07:28:47.920Z,2.85
2023-10-14T07:31:15.790Z,2.47
2023-10-14T07:33:45.177Z,2.10
2023-10-14T07:36:15.922Z,3.23
2023-10-14T07:38:46.378Z,2.42
2023-10-14T07:41:15.602Z,1.95
2023-10-14T07:43:43.364Z,2.38
2023-10-14T07:46:11.369Z,2.38
2023-10-14T07:48:41.776Z,2.47
2023-10-14T07:51:22.734Z,2.13
2023-10-14T07:54:02.070Z,2.70
2023-10-14T07:56:29.814Z,2.15
2023-10-14T07:58:58.106Z,2.22
2023-10-14T08:01:26.986Z,2.43
2023-10-14T08:03:59.216Z,3.00
2023-10-14T08:06:27.842Z,2.25
2023-10-14T08:08:55.833Z,2.58
2023-10-14T08:11:23.625Z,2.67
2023-10-14T08:13:51.470Z,2.70
2023-10-14T08:16:21.463Z,2.15
2023-10-14T08:18:50.220Z,2.72
2023-10-14T08:21:18.109Z,2.22
2023-10-14T08:23:45.725Z,2.67
2023-10-14T08:26:16.275Z,2.10
2023-10-14T08:28:44.176Z,2.28
2023-10-14T08:31:13.583Z,2.67
2023-10-14T08:33:44.935Z,1.80
2023-10-14T08:36:15.048Z,2.35
2023-10-14T08:38:45.309Z,2.57
2023-10-14T08:41:15.834Z,2.75
2023-10-14T08:43:51.294Z,3.13
2023-10-14T08:46:20.272Z,2.58
2023-10-14T08:48:51.745Z,2.72
2023-10-14T08:51:22.394Z,2.70
2023-10-14T08:53:54.828Z,2.22
2023-10-14T08:56:23.984Z,2.97
2023-10-14T08:58:51.666Z,2.25
2023-10-14T09:01:23.926Z,2.75
2023-10-14T09:03:51.873Z,2.87
2023-10-14T09:06:20.552Z,2.17
2023-10-14T09:08:55.998Z,2.05
2023-10-14T09:11:35.002Z,2.38
2023-10-14T09:14:04.946Z,2.22
2023-10-14T09:16:38.161Z,2.30
2023-10-14T09:19:06.863Z,3.10
2023-10-14T09:21:44.500Z,2.60
2023-10-14T09:24:12.652Z,2.30
2023-10-14T09:26:45.287Z,2.90
2023-10-14T09:29:13.432Z,2.90
2023-10-14T09:31:42.162Z,2.20
2023-10-14T09:34:22.970Z,2.45
2023-10-14T09:36:53.668Z,1.83
2023-10-14T09:39:26.421Z,2.60
2023-10-14T09:41:55.307Z,2.37
2023-10-14T09:44:23.740Z,2.25
2023-10-14T09:46:54.315Z,2.35
2023-10-14T09:49:24.621Z,1.95
2023-10-14T09:51:55.487Z,1.98
2023-10-14T09:54:25.174Z,2.03
2023-10-14T09:56:54.410Z,2.20
2023-10-14T09:59:23.789Z,2.60
2023-10-14T10:01:51.837Z,2.30
2023-10-14T10:04:27.797Z,2.40
2023-10-14T10:07:09.584Z,1.93
2023-10-14T10:09:59.277Z,2.20
2023-10-14T10:12:31.967Z,2.25
2023-10-14T10:15:05.084Z,1.77
2023-10-14T10:17:40.826Z,2.35
2023-10-14T10:20:11.842Z,2.27
2023-10-14T10:22:44.617Z,1.85
2023-10-14T10:25:16.323Z,2.15
2023-10-14T10:27:45.991Z,2.00
2023-10-14T10:30:16.146Z,2.28
2023-10-14T10:32:50.305Z,2.07
2023-10-14T10:35:19.932Z,2.28
2023-10-14T10:37:58.704Z,2.47
2023-10-14T10:40:28.283Z,2.15
2023-10-14T10:43:21.828Z,1.88
2023-10-14T10:45:53.702Z,2.10
2023-10-14T10:48:24.699Z,2.03
2023-10-14T10:50:52.894Z,2.35
2023-10-14T10:53:21.871Z,2.13
2023-10-14T10:55:53.269Z,1.95
2023-10-14T10:58:23.681Z,2.10
2023-10-14T11:00:53.158Z,1.77
2023-10-14T11:03:21.065Z,2.38
2023-10-14T11:05:49.434Z,1.88
2023-10-14T11:08:17.637Z,1.90
2023-10-14T11:10:46.959Z,2.23
2023-10-14T11:13:17.793Z,1.75
2023-10-14T11:15:48.018Z,2.10
2023-10-14T11:18:31.531Z,2.45
2023-10-14T11:21:04.815Z,2.10
2023-10-14T11:23:37.227Z,1.60
2023-10-14T11:26:12.940Z,1.70
2023-10-14T11:28:46.467Z,2.05
2023-10-14T11:31:14.670Z,1.88
2023-10-14T11:33:49.295Z,1.70
2023-10-14T11:36:19.562Z,1.80
2023-10-14T11:38:50.500Z,1.73
2023-10-14T11:41:19.374Z,2.03
2023-10-14T11:43:47.544Z,1.73
2023-10-14T11:46:15.433Z,1.65
2023-10-14T11:48:47.897Z,1.80
2023-10-14T11:51:23.024Z,2.05
2023-10-14T11:53:54.442Z,1.98
2023-10-14T11:56:22.307Z,1.63
2023-10-14T11:58:52.110Z,1.70
2023-10-14T12:01:25.284Z,1.97
2023-10-14T12:03:54.246Z,1.92
2023-10-14T12:06:22.357Z,2.08
2023-10-14T12:08:53.386Z,2.13
2023-10-14T12:11:21.453Z,2.03
2023-10-14T12:13:51.289Z,1.60
2023-10-14T12:16:20.661Z,1.88
2023-10-14T12:18:50.392Z,2.20
2023-10-14T12:21:18.312Z,1.77
2023-10-14T12:23:47.717Z,1.58
2023-10-14T12:26:37.503Z,2.00
2023-10-14T12:29:21.221Z,1.73
2023-10-14T12:31:49.518Z,1.75
2023-10-14T12:34:20.958Z,1.65
2023-10-14T12:36:48.643Z,1.70
2023-10-14T12:39:42.537Z,1.97
2023-10-14T12:42:10.485Z,2.20
2023-10-14T12:44:38.154Z,1.70
2023-10-14T12:47:15.719Z,1.73
2023-10-14T12:49:44.047Z,2.13
2023-10-14T12:52:14.732Z,2.07
2023-10-14T12:54:47.345Z,1.88
2023-10-14T12:57:15.729Z,1.70
2023-10-14T12:59:43.539Z,1.77
2023-10-14T13:02:11.455Z,1.90
2023-10-14T13:04:43.341Z,1.73
2023-10-14T13:07:11.288Z,1.98
2023-10-14T13:09:40.144Z,1.80
2023-10-14T13:12:17.711Z,1.73
2023-10-14T13:14:46.752Z,1.67
2023-10-14T13:17:14.578Z,1.60
2023-10-14T13:19:42.995Z,1.63
2023-10-14T13:22:11.521Z,1.80
2023-10-14T13:24:40.039Z,1.60
2023-10-14T13:27:08.314Z,1.65
2023-10-14T13:29:42.749Z,1.97
2023-10-14T13:32:15.873Z,1.70
2023-10-14T13:34:46.838Z,1.77
2023-10-14T13:37:15.881Z,1.55
2023-10-14T13:39:44.146Z,1.70
2023-10-14T13:42:12.918Z,1.83
2023-10-14T13:44:41.315Z,1.77
2023-10-14T13:47:09.373Z,1.88
2023-10-14T13:49:37.216Z,1.85
2023-10-14T13:52:05.790Z,1.70
2023-10-14T13:54:34.506Z,1.70
2023-10-14T13:57:02.880Z,1.85
2023-10-14T13:59:30.931Z,1.73
2023-10-14T14:01:58.709Z,1.65
2023-10-14T14:04:26.687Z,1.83
2023-10-14T14:06:55.680Z,1.90
2023-10-14T14:09:25.652Z,1.65
2023-10-14T14:11:57.918Z,1.85
2023-10-14T14:14:26.996Z,1.95
2023-10-14T14:16:55.387Z,2.08
2023-10-14T14:19:23.901Z,1.70
2023-10-14T14:21:53.281Z,1.80
2023-10-14T14:24:23.960Z,1.92
2023-10-14T14:26:57.471Z,1.88
2023-10-14T14:29:25.334Z,1.92
2023-10-14T14:31:53.295Z,1.83
2023-10-14T14:34:26.435Z,2.00
2023-10-14T14:36:54.171Z,1.95
2023-10-14T14:39:21.980Z,2.05
2023-10-14T14:41:54.021Z,1.90
2023-10-14T14:44:21.723Z,1.90
2023-10-14T14:46:50.866Z,1.98
2023-10-14T14:49:18.935Z,2.25
2023-10-14T14:51:47.110Z,2.10
2023-10-14T14:54:14.932Z,2.17
2023-10-14T14:56:42.600Z,2.40
2023-10-14T14:59:15.070Z,2.25
2023-10-14T15:01:43.520Z,2.40
2023-10-14T15:04:11.498Z,2.30
2023-10-14T15:06:39.938Z,2.20
2023-10-14T15:09:16.065Z,2.23
2023-10-14T15:11:45.710Z,2.72
2023-10-14T15:14:17.379Z,1.98
2023-10-14T15:16:45.383Z,3.05
2023-10-14T15:19:17.350Z,1.85
2023-10-14T15:21:50.468Z,2.30
2023-10-14T15:24:19.303Z,2.28
2023-10-14T15:26:48.961Z,2.58
2023-10-14T15:29:17.382Z,2.60
2023-10-14T15:31:46.909Z,3.30
2023-10-14T15:34:15.602Z,3.13
2023-10-14T15:36:45.361Z,3.70
2023-10-14T15:39:21.120Z,3.92
2023-10-14T15:41:48.797Z,3.20
2023-10-14T15:44:16.643Z,3.30
2023-10-14T15:46:44.580Z,3.20
2023-10-14T15:49:12.364Z,3.10
2023-10-14T15:51:40.069Z,4.03
2023-10-14T15:54:07.951Z,4.03
2023-10-14T15:56:35.824Z,3.95
2023-10-14T15:59:06.518Z,3.20
2023-10-14T16:01:37.232Z,2.47
2023-10-14T16:04:05.718Z,3.88
2023-10-14T16:06:33.614Z,4.20
2023-10-14T16:09:01.327Z,4.25
2023-10-14T16:11:30.378Z,3.83
2023-10-14T16:14:01.378Z,2.90
2023-10-14T16:16:29.973Z,4.45
2023-10-14T16:19:02.185Z,3.25
2023-10-14T16:21:30.175Z,4.60
2023-10-14T16:23:57.859Z,4.03
2023-10-14T16:26:25.857Z,4.18
2023-10-14T16:28:55.362Z,3.63
2023-10-14T16:31:24.120Z,4.25
2023-10-14T16:33:52.002Z,4.57
2023-10-14T16:36:19.612Z,4.80
2023-10-14T16:38:47.653Z,4.05
2023-10-14T16:41:16.760Z,4.07
2023-10-14T16:43:44.576Z,4.50
2023-10-14T16:46:15.671Z,3.47
2023-10-14T16:48:44.114Z,4.03
2023-10-14T16:51:14.977Z,4.38
2023-10-14T16:53:42.888Z,4.65
2023-10-14T16:56:15.447Z,2.72
2023-10-14T16:58:46.243Z,4.03
2023-10-14T17:01:16.405Z,3.83
2023-10-14T17:03:47.478Z,4.70
2023-10-14T17:06:16.603Z,3.17
2023-10-14T17:08:45.043Z,3.70
2023-10-14T17:11:13.709Z,5.10
2023-10-14T17:13:41.971Z,3.97
2023-10-14T17:16:17.824Z,4.05
2023-10-14T17:18:45.604Z,4.55
2023-10-14T17:21:13.317Z,3.83
2023-10-14T17:23:41.077Z,4.63
2023-10-14T17:26:09.009Z,3.53
2023-10-14T17:28:36.896Z,4.22
2023-10-14T17:31:07.690Z,3.80
2023-10-14T17:33:35.841Z,4.00
2023-10-14T17:36:09.310Z,3.55
2023-10-14T17:38:37.053Z,3.77
2023-10-14T17:41:05.819Z,3.53
2023-10-14T17:43:33.487Z,4.47
2023-10-14T17:46:02.503Z,3.53
2023-10-14T17:48:33.935Z,4.75
2023-10-14T17:51:01.552Z,4.60
2023-10-14T17:53:29.245Z,3.33
2023-10-14T17:56:17.263Z,3.92
2023-10-14T17:58:45.420Z,4.70
2023-10-14T18:01:14.047Z,4.45
2023-10-14T18:03:45.536Z,3.10
2023-10-14T18:06:14.038Z,4.18
2023-10-14T18:08:41.825Z,3.55
2023-10-14T18:11:09.447Z,3.28
2023-10-14T18:13:37.675Z,3.30
2023-10-14T18:16:09.908Z,4.57
2023-10-14T18:18:37.956Z,4.00
2023-10-14T18:21:11.091Z,3.08
2023-10-14T18:23:38.738Z,2.95
2023-10-14T18:26:11.691Z,2.83
2023-10-14T18:28:40.024Z,3.43
2023-10-14T18:31:14.332Z,2.63
2023-10-14T18:33:42.132Z,3.05
2023-10-14T18:36:11.465Z,3.30
2023-10-14T18:38:41.386Z,3.28
2023-10-14T18:41:14.015Z,3.43
2023-10-14T18:43:44.723Z,2.97
2023-10-14T18:46:14.231Z,3.42
2023-10-14T18:48:41.875Z,4.07
2023-10-14T18:51:17.833Z,3.25
2023-10-14T18:53:46.278Z,3.27
2023-10-14T18:56:22.360Z,3.60
2023-10-14T18:58:51.252Z,3.33
2023-10-14T19:01:19.227Z,3.28
2023-10-14T19:03:48.770Z,3.13
2023-10-14T19:06:17.962Z,2.90
2023-10-14T19:08:45.732Z,2.83
2023-10-14T19:11:13.802Z,3.50
2023-10-14T19:13:41.594Z,3.03
2023-10-14T19:16:11.214Z,3.55
2023-10-14T19:18:39.082Z,2.70
2023-10-14T19:21:09.863Z,3.28
2023-10-14T19:23:38.177Z,3.35
2023-10-14T19:26:06.253Z,2.58
2023-10-14T19:28:34.075Z,2.83
2023-10-14T19:31:03.912Z,3.97
2023-10-14T19:33:31.966Z,3.17
2023-10-14T19:36:05.116Z,3.40
2023-10-14T19:38:33.106Z,3.50
2023-10-14T19:41:05.758Z,3.50
2023-10-14T19:43:35.421Z,2.97
2023-10-14T19:46:10.651Z,3.10
2023-10-14T19:48:40.870Z,2.88
2023-10-14T19:51:15.030Z,2.72
2023-10-14T19:53:46.239Z,2.90
2023-10-14T19:56:15.795Z,2.73
2023-10-14T19:58:45.001Z,3.67
2023-10-14T20:01:17.093Z,3.25
2023-10-14T20:03:45.865Z,3.35
2023-10-14T20:06:19.600Z,2.60
2023-10-14T20:08:48.390Z,3.53
2023-10-14T20:11:16.494Z,2.50
2023-10-14T20:13:44.407Z,2.53
2023-10-14T20:16:12.824Z,2.33
2023-10-14T20:18:40.602Z,3.20
2023-10-14T20:21:08.235Z,3.70
2023-10-14T20:23:36.024Z,2.58
2023-10-14T20:26:11.763Z,3.03
2023-10-14T20:28:40.434Z,3.15
2023-10-14T20:31:12.586Z,3.47
2023-10-14T20:33:40.649Z,3.93
2023-10-14T20:36:09.411Z,3.83
2023-10-14T20:38:37.290Z,2.85
2023-10-14T20:41:09.363Z,3.00
2023-10-14T20:43:37.328Z,3.78
2023-10-14T20:46:10.590Z,3.40
2023-10-14T20:48:41.543Z,2.95
2023-10-14T20:51:12.590Z,2.63
2023-10-14T20:53:40.616Z,2.67
2023-10-14T20:56:17.279Z,2.80
2023-10-14T20:58:44.940Z,3.23
2023-10-14T21:01:15.368Z,2.53
2023-10-14T21:03:44.052Z,2.30
2023-10-14T21:06:12.549Z,2.20
2023-10-14T21:08:40.296Z,3.17
2023-10-14T21:11:12.195Z,2.53
2023-10-14T21:13:39.995Z,3.20
2023-10-14T21:16:07.757Z,2.80
2023-10-14T21:18:36.030Z,3.58
2023-10-14T21:21:11.424Z,2.53
2023-10-14T21:23:39.573Z,3.83
2023-10-14T21:26:08.240Z,2.67
2023-10-14T21:28:36.107Z,2.20
2023-10-14T21:31:04.349Z,2.72
2023-10-14T21:33:32.814Z,3.33
2023-10-14T21:36:00.519Z,2.60
2023-10-14T21:38:28.281Z,2.80
2023-10-14T21:40:56.688Z,2.53
2023-10-14T21:43:24.592Z,2.90
2023-10-14T21:45:52.797Z,2.67
2023-10-14T21:48:21.054Z,3.80
2023-10-14T21:50:49.965Z,3.28
2023-10-14T21:53:17.883Z,3.35
2023-10-14T21:55:46.393Z,3.05
2023-10-14T21:58:15.671Z,2.70
2023-10-14T22:01:03.460Z,3.30
2023-10-14T22:03:33.790Z,3.20
2023-10-14T22:06:02.137Z,2.92
2023-10-14T22:08:29.819Z,3.28
2023-10-14T22:10:57.564Z,3.78
2023-10-14T22:13:25.491Z,4.00
2023-10-14T22:15:54.978Z,2.65
2023-10-14T22:18:22.699Z,2.15
2023-10-14T22:20:51.834Z,3.05
2023-10-14T22:23:19.604Z,3.05
2023-10-14T22:25:47.503Z,2.97
2023-10-14T22:28:17.325Z,3.80
2023-10-14T22:30:47.234Z,3.70
2023-10-14T22:33:16.146Z,3.38
2023-10-14T22:35:45.451Z,3.08
2023-10-14T22:38:13.508Z,2.50
2023-10-14T22:40:45.795Z,2.53
2023-10-14T22:43:13.566Z,2.13
2023-10-14T22:45:41.603Z,2.78
2023-10-14T22:48:11.283Z,2.20
2023-10-14T22:50:39.219Z,2.50
2023-10-14T22:53:08.159Z,2.95
2023-10-14T22:55:35.901Z,2.03
2023-10-14T22:58:06.540Z,2.53
2023-10-14T23:00:34.904Z,2.58
2023-10-14T23:03:10.996Z,2.93
2023-10-14T23:05:44.000Z,2.15
2023-10-14T23:08:13.990Z,2.83
2023-10-14T23:10:42.345Z,2.20
2023-10-14T23:13:10.442Z,2.22
2023-10-14T23:15:40.673Z,2.30
2023-10-14T23:18:09.035Z,2.55
2023-10-14T23:20:37.792Z,2.60
2023-10-14T23:23:06.723Z,1.85
2023-10-14T23:25:36.730Z,1.70
2023-10-14T23:28:05.094Z,1.77
2023-10-14T23:30:32.873Z,1.65
2023-10-14T23:33:02.166Z,1.50
2023-10-14T23:35:30.135Z,1.30
2023-10-14T23:38:07.613Z,1.65
2023-10-14T23:40:35.900Z,1.50
2023-10-14T23:43:03.921Z,1.35
2023-10-14T23:45:33.352Z,1.38
2023-10-14T23:48:03.796Z,1.65
2023-10-14T23:50:39.598Z,1.50
2023-10-14T23:53:07.475Z,1.37
2023-10-14T23:55:35.862Z,1.58
2023-10-14T23:58:04.465Z,2.00
